sensor_id;sensor_type;location;lat;lon;timestamp;pressure;altitude;pressure_sealevel;temperature;humidity
10261;BME280;5175;42.606;23.388;2023-10-31T00:02:18;93980.72;;;10.15;100.00
10261;BME280;5175;42.606;23.388;2023-10-31T00:04:45;93978.03;;;10.20;100.00
10261;BME280;5175;42.606;23.388;2023-10-31T00:07:12;93977.22;;;10.20;100.00
10261;BME280;5175;42.606;23.388;2023-10-31T00:09:39;93974.78;;;10.33;100.00
10261;BME280;5175;42.606;23.388;2023-10-31T00:12:06;93972.66;;;10.30;100.00
10261;BME280;5175;42.606;23.388;2023-10-31T00:14:33;93970.31;;;10.24;100.00
10261;BME280;5175;42.606;23.388;2023-10-31T00:17:00;93973.44;;;10.41;100.00
10261;BME280;5175;42.606;23.388;2023-10-31T00:19:28;93965.44;;;10.36;100.00
10261;BME280;5175;42.606;23.388;2023-10-31T00:21:55;93969.78;;;10.22;100.00
10261;BME280;5175;42.606;23.388;2023-10-31T00:24:21;93960.41;;;10.29;100.00
10261;BME280;5175;42.606;23.388;2023-10-31T00:26:48;93962.50;;;10.47;100.00
10261;BME280;5175;42.606;23.388;2023-10-31T00:29:15;93956.91;;;10.39;100.00
10261;BME280;5175;42.606;23.388;2023-10-31T00:31:42;93962.00;;;10.30;100.00
10261;BME280;5175;42.606;23.388;2023-10-31T00:34:09;93945.53;;;10.13;100.00
10261;BME280;5175;42.606;23.388;2023-10-31T00:36:36;93959.66;;;10.08;100.00
10261;BME280;5175;42.606;23.388;2023-10-31T00:39:03;93962.56;;;10.17;100.00
10261;BME280;5175;42.606;23.388;2023-10-31T00:41:30;93954.56;;;10.07;100.00
10261;BME280;5175;42.606;23.388;2023-10-31T00:43:57;93944.47;;;9.89;100.00
10261;BME280;5175;42.606;23.388;2023-10-31T00:46:24;93953.56;;;9.93;100.00
10261;BME280;5175;42.606;23.388;2023-10-31T00:48:51;93945.56;;;9.93;100.00
10261;BME280;5175;42.606;23.388;2023-10-31T00:51:17;93947.09;;;10.04;100.00
10261;BME280;5175;42.606;23.388;2023-10-31T00:53:46;93941.78;;;10.04;100.00
10261;BME280;5175;42.606;23.388;2023-10-31T00:56:12;93942.91;;;9.88;100.00
10261;BME280;5175;42.606;23.388;2023-10-31T00:58:39;93937.84;;;9.81;100.00
10261;BME280;5175;42.606;23.388;2023-10-31T01:01:06;93937.81;;;9.91;100.00
10261;BME280;5175;42.606;23.388;2023-10-31T01:03:32;93945.84;;;9.71;100.00
10261;BME280;5175;42.606;23.388;2023-10-31T01:05:59;93943.72;;;9.53;100.00
10261;BME280;5175;42.606;23.388;2023-10-31T01:08:26;93926.19;;;9.52;100.00
10261;BME280;5175;42.606;23.388;2023-10-31T01:10:54;93931.44;;;9.82;100.00
10261;BME280;5175;42.606;23.388;2023-10-31T01:13:21;93918.41;;;9.71;100.00
10261;BME280;5175;42.606;23.388;2023-10-31T01:15:47;93920.84;;;9.57;100.00
10261;BME280;5175;42.606;23.388;2023-10-31T01:18:14;93918.19;;;9.52;100.00
10261;BME280;5175;42.606;23.388;2023-10-31T01:20:41;93922.41;;;9.73;100.00
10261;BME280;5175;42.606;23.388;2023-10-31T01:23:07;93924.28;;;9.68;100.00
10261;BME280;5175;42.606;23.388;2023-10-31T01:25:34;93922.41;;;9.68;100.00
10261;BME280;5175;42.606;23.388;2023-10-31T01:28:02;93922.41;;;9.78;100.00
10261;BME280;5175;42.606;23.388;2023-10-31T01:30:29;93920.56;;;9.64;100.00
10261;BME280;5175;42.606;23.388;2023-10-31T01:32:56;93926.69;;;9.69;100.00
10261;BME280;5175;42.606;23.388;2023-10-31T01:35:22;93928.81;;;9.67;100.00
10261;BME280;5175;42.606;23.388;2023-10-31T01:37:49;93917.88;;;9.64;100.00
10261;BME280;5175;42.606;23.388;2023-10-31T01:40:16;93907.50;;;9.62;100.00
10261;BME280;5175;42.606;23.388;2023-10-31T01:42:43;93913.09;;;9.66;100.00
10261;BME280;5175;42.606;23.388;2023-10-31T01:45:11;93920.84;;;9.57;100.00
10261;BME280;5175;42.606;23.388;2023-10-31T01:47:37;93920.84;;;9.62;100.00
10261;BME280;5175;42.606;23.388;2023-10-31T01:50:06;93913.13;;;9.35;100.00
10261;BME280;5175;42.606;23.388;2023-10-31T01:52:35;93912.06;;;9.36;100.00
10261;BME280;5175;42.606;23.388;2023-10-31T01:55:03;93912.31;;;9.45;100.00
10261;BME280;5175;42.606;23.388;2023-10-31T01:57:30;93913.91;;;9.46;100.00
10261;BME280;5175;42.606;23.388;2023-10-31T01:59:58;93916.06;;;9.49;100.00
10261;BME280;5175;42.606;23.388;2023-10-31T02:02:27;93916.31;;;9.42;100.00
10261;BME280;5175;42.606;23.388;2023-10-31T02:04:55;93904.09;;;9.21;100.00
10261;BME280;5175;42.606;23.388;2023-10-31T02:07:22;93906.19;;;9.14;100.00
10261;BME280;5175;42.606;23.388;2023-10-31T02:09:49;93904.06;;;8.96;100.00
10261;BME280;5175;42.606;23.388;2023-10-31T02:12:31;93905.66;;;9.07;100.00
10261;BME280;5175;42.606;23.388;2023-10-31T02:14:59;93904.88;;;9.12;100.00
10261;BME280;5175;42.606;23.388;2023-10-31T02:17:27;93902.22;;;8.97;100.00
10261;BME280;5175;42.606;23.388;2023-10-31T02:19:53;93894.22;;;9.07;100.00
10261;BME280;5175;42.606;23.388;2023-10-31T02:22:21;93887.56;;;8.94;100.00
10261;BME280;5175;42.606;23.388;2023-10-31T02:24:48;93895.03;;;8.97;100.00
10261;BME280;5175;42.606;23.388;2023-10-31T02:27:15;93879.34;;;8.91;100.00
10261;BME280;5175;42.606;23.388;2023-10-31T02:29:42;93888.91;;;8.87;100.00
10261;BME280;5175;42.606;23.388;2023-10-31T02:32:08;93884.09;;;8.83;100.00
10261;BME280;5175;42.606;23.388;2023-10-31T02:34:35;93886.22;;;8.71;100.00
10261;BME280;5175;42.606;23.388;2023-10-31T02:37:02;93881.16;;;8.50;100.00
10261;BME280;5175;42.606;23.388;2023-10-31T02:39:32;93884.06;;;8.58;100.00
10261;BME280;5175;42.606;23.388;2023-10-31T02:41:59;93887.81;;;8.72;100.00
10261;BME280;5175;42.606;23.388;2023-10-31T02:44:26;93873.41;;;8.43;100.00
10261;BME280;5175;42.606;23.388;2023-10-31T02:46:53;93878.75;;;8.53;100.00
10261;BME280;5175;42.606;23.388;2023-10-31T02:49:19;93882.75;;;8.61;100.00
10261;BME280;5175;42.606;23.388;2023-10-31T02:51:46;93876.03;;;8.28;100.00
10261;BME280;5175;42.606;23.388;2023-10-31T02:54:13;93875.94;;;8.08;100.00
10261;BME280;5175;42.606;23.388;2023-10-31T02:56:41;93879.94;;;8.15;100.00
10261;BME280;5175;42.606;23.388;2023-10-31T02:59:08;93880.78;;;8.26;100.00
10261;BME280;5175;42.606;23.388;2023-10-31T03:01:35;93877.66;;;8.34;100.00
10261;BME280;5175;42.606;23.388;2023-10-31T03:04:02;93874.69;;;8.31;100.00
10261;BME280;5175;42.606;23.388;2023-10-31T03:06:29;93874.66;;;8.26;100.00
10261;BME280;5175;42.606;23.388;2023-10-31T03:08:56;93877.38;;;8.41;100.00
10261;BME280;5175;42.606;23.388;2023-10-31T03:11:22;93869.34;;;8.26;100.00
10261;BME280;5175;42.606;23.388;2023-10-31T03:13:51;93864.84;;;8.26;100.00
10261;BME280;5175;42.606;23.388;2023-10-31T03:16:18;93870.63;;;8.08;100.00
10261;BME280;5175;42.606;23.388;2023-10-31T03:18:45;93872.94;;;7.94;100.00
10261;BME280;5175;42.606;23.388;2023-10-31T03:21:12;93867.31;;;7.86;100.00
10261;BME280;5175;42.606;23.388;2023-10-31T03:23:40;93850.84;;;7.84;100.00
10261;BME280;5175;42.606;23.388;2023-10-31T03:26:07;93874.56;;;7.95;100.00
10261;BME280;5175;42.606;23.388;2023-10-31T03:28:34;93867.88;;;7.88;100.00
10261;BME280;5175;42.606;23.388;2023-10-31T03:31:02;93871.41;;;8.03;100.00
10261;BME280;5175;42.606;23.388;2023-10-31T03:33:29;93863.31;;;7.83;100.00
10261;BME280;5175;42.606;23.388;2023-10-31T03:35:55;93869.75;;;7.87;100.00
10261;BME280;5175;42.606;23.388;2023-10-31T03:38:22;93867.66;;;7.99;100.00
10261;BME280;5175;42.606;23.388;2023-10-31T03:40:49;93859.44;;;8.01;100.00
10261;BME280;5175;42.606;23.388;2023-10-31T03:43:15;93853.53;;;7.94;100.00
10261;BME280;5175;42.606;23.388;2023-10-31T03:45:42;93856.81;;;8.06;100.00
10261;BME280;5175;42.606;23.388;2023-10-31T03:48:10;93844.84;;;8.03;100.00
10261;BME280;5175;42.606;23.388;2023-10-31T03:50:37;93849.81;;;7.90;100.00
10261;BME280;5175;42.606;23.388;2023-10-31T03:53:04;93852.50;;;7.95;100.00
10261;BME280;5175;42.606;23.388;2023-10-31T03:55:30;93855.66;;;7.92;100.00
10261;BME280;5175;42.606;23.388;2023-10-31T03:57:57;93853.03;;;7.97;100.00
10261;BME280;5175;42.606;23.388;2023-10-31T04:00:24;93840.28;;;7.99;100.00
10261;BME280;5175;42.606;23.388;2023-10-31T04:02:51;93840.56;;;7.97;100.00
10261;BME280;5175;42.606;23.388;2023-10-31T04:05:19;93821.63;;;7.84;100.00
10261;BME280;5175;42.606;23.388;2023-10-31T04:07:46;93848.56;;;8.07;100.00
10261;BME280;5175;42.606;23.388;2023-10-31T04:10:13;93832.31;;;7.99;100.00
10261;BME280;5175;42.606;23.388;2023-10-31T04:12:41;93841.63;;;8.01;100.00
10261;BME280;5175;42.606;23.388;2023-10-31T04:15:08;93850.91;;;7.99;100.00
10261;BME280;5175;42.606;23.388;2023-10-31T04:17:35;93847.97;;;7.90;100.00
10261;BME280;5175;42.606;23.388;2023-10-31T04:20:02;93847.16;;;7.90;100.00
10261;BME280;5175;42.606;23.388;2023-10-31T04:22:30;93841.28;;;7.78;100.00
10261;BME280;5175;42.606;23.388;2023-10-31T04:24:57;93836.47;;;7.70;100.00
10261;BME280;5175;42.606;23.388;2023-10-31T04:27:24;93843.13;;;7.72;100.00
10261;BME280;5175;42.606;23.388;2023-10-31T04:29:51;93830.06;;;7.66;100.00
10261;BME280;5175;42.606;23.388;2023-10-31T04:32:17;93833.56;;;7.76;100.00
10261;BME280;5175;42.606;23.388;2023-10-31T04:34:44;93830.13;;;7.86;100.00
10261;BME280;5175;42.606;23.388;2023-10-31T04:37:10;93827.19;;;7.77;100.00
10261;BME280;5175;42.606;23.388;2023-10-31T04:39:39;93825.31;;;7.68;100.00
10261;BME280;5175;42.606;23.388;2023-10-31T04:42:05;93831.22;;;7.85;100.00
10261;BME280;5175;42.606;23.388;2023-10-31T04:44:32;93830.09;;;7.76;100.00
10261;BME280;5175;42.606;23.388;2023-10-31T04:46:59;93841.31;;;7.83;100.00
10261;BME280;5175;42.606;23.388;2023-10-31T04:49:25;93826.91;;;7.69;100.00
10261;BME280;5175;42.606;23.388;2023-10-31T04:51:52;93837.25;;;7.65;100.00
10261;BME280;5175;42.606;23.388;2023-10-31T04:54:19;93841.00;;;7.74;100.00
10261;BME280;5175;42.606;23.388;2023-10-31T04:56:49;93852.69;;;7.78;100.00
10261;BME280;5175;42.606;23.388;2023-10-31T04:59:15;93857.94;;;7.63;100.00
10261;BME280;5175;42.606;23.388;2023-10-31T05:01:48;93857.63;;;7.49;100.00
10261;BME280;5175;42.606;23.388;2023-10-31T05:04:15;93849.38;;;7.51;100.00
10261;BME280;5175;42.606;23.388;2023-10-31T05:06:42;93852.47;;;7.33;100.00
10261;BME280;5175;42.606;23.388;2023-10-31T05:09:10;93856.47;;;7.40;100.00
10261;BME280;5175;42.606;23.388;2023-10-31T05:11:36;93850.38;;;7.40;100.00
10261;BME280;5175;42.606;23.388;2023-10-31T05:14:05;93851.19;;;7.45;100.00
10261;BME280;5175;42.606;23.388;2023-10-31T05:16:31;93852.53;;;7.48;100.00
10261;BME280;5175;42.606;23.388;2023-10-31T05:18:58;93851.16;;;7.40;100.00
10261;BME280;5175;42.606;23.388;2023-10-31T05:21:29;93855.50;;;7.51;100.00
10261;BME280;5175;42.606;23.388;2023-10-31T05:23:56;93854.75;;;7.61;100.00
10261;BME280;5175;42.606;23.388;2023-10-31T05:26:22;93820.03;;;7.26;100.00
10261;BME280;5175;42.606;23.388;2023-10-31T05:28:48;93845.88;;;7.45;100.00
10261;BME280;5175;42.606;23.388;2023-10-31T05:31:17;93853.75;;;7.77;100.00
10261;BME280;5175;42.606;23.388;2023-10-31T05:33:43;93858.31;;;7.92;100.00
10261;BME280;5175;42.606;23.388;2023-10-31T05:36:17;93834.22;;;8.03;100.00
10261;BME280;5175;42.606;23.388;2023-10-31T05:38:44;93861.28;;;8.00;100.00
10261;BME280;5175;42.606;23.388;2023-10-31T05:41:11;93868.16;;;7.96;100.00
10261;BME280;5175;42.606;23.388;2023-10-31T05:43:37;93866.63;;;8.05;100.00
10261;BME280;5175;42.606;23.388;2023-10-31T05:46:04;93859.16;;;7.97;100.00
10261;BME280;5175;42.606;23.388;2023-10-31T05:48:32;93860.56;;;8.25;100.00
10261;BME280;5175;42.606;23.388;2023-10-31T05:50:59;93863.78;;;8.27;100.00
10261;BME280;5175;42.606;23.388;2023-10-31T05:53:26;93865.41;;;8.33;100.00
10261;BME280;5175;42.606;23.388;2023-10-31T05:55:53;93859.81;;;8.40;100.00
10261;BME280;5175;42.606;23.388;2023-10-31T05:58:20;93845.25;;;8.42;100.00
10261;BME280;5175;42.606;23.388;2023-10-31T06:00:47;93855.88;;;8.52;100.00
10261;BME280;5175;42.606;23.388;2023-10-31T06:03:13;93859.09;;;8.59;100.00
10261;BME280;5175;42.606;23.388;2023-10-31T06:05:41;93867.88;;;8.70;100.00
10261;BME280;5175;42.606;23.388;2023-10-31T06:08:10;93875.06;;;8.79;100.00
10261;BME280;5175;42.606;23.388;2023-10-31T06:10:37;93879.84;;;9.18;100.00
10261;BME280;5175;42.606;23.388;2023-10-31T06:13:04;93887.56;;;9.39;100.00
10261;BME280;5175;42.606;23.388;2023-10-31T06:15:30;93884.56;;;9.71;100.00
10261;BME280;5175;42.606;23.388;2023-10-31T06:17:57;93881.84;;;9.91;100.00
10261;BME280;5175;42.606;23.388;2023-10-31T06:20:24;93890.84;;;10.11;100.00
10261;BME280;5175;42.606;23.388;2023-10-31T06:22:52;93893.84;;;9.94;100.00
10261;BME280;5175;42.606;23.388;2023-10-31T06:25:19;93891.94;;;10.15;100.00
10261;BME280;5175;42.606;23.388;2023-10-31T06:27:45;93894.84;;;10.18;100.00
10261;BME280;5175;42.606;23.388;2023-10-31T06:30:12;93892.13;;;10.33;100.00
10261;BME280;5175;42.606;23.388;2023-10-31T06:32:39;93899.31;;;10.38;100.00
10261;BME280;5175;42.606;23.388;2023-10-31T06:35:06;93905.19;;;10.40;100.00
10261;BME280;5175;42.606;23.388;2023-10-31T06:37:33;93901.50;;;10.75;100.00
10261;BME280;5175;42.606;23.388;2023-10-31T06:40:03;93908.47;;;11.14;100.00
10261;BME280;5175;42.606;23.388;2023-10-31T06:42:30;93909.09;;;11.35;100.00
10261;BME280;5175;42.606;23.388;2023-10-31T06:44:56;93926.97;;;11.40;100.00
10261;BME280;5175;42.606;23.388;2023-10-31T06:47:23;93923.38;;;11.54;100.00
10261;BME280;5175;42.606;23.388;2023-10-31T06:49:50;93915.66;;;11.81;100.00
10261;BME280;5175;42.606;23.388;2023-10-31T06:52:17;93919.34;;;12.14;100.00
10261;BME280;5175;42.606;23.388;2023-10-31T06:54:43;93909.66;;;12.42;100.00
10261;BME280;5175;42.606;23.388;2023-10-31T06:57:11;93916.13;;;12.60;100.00
10261;BME280;5175;42.606;23.388;2023-10-31T06:59:38;93913.22;;;12.56;100.00
10261;BME280;5175;42.606;23.388;2023-10-31T07:02:05;93895.00;;;12.77;100.00
10261;BME280;5175;42.606;23.388;2023-10-31T07:04:32;93892.75;;;13.02;100.00
10261;BME280;5175;42.606;23.388;2023-10-31T07:06:58;93896.91;;;13.32;100.00
10261;BME280;5175;42.606;23.388;2023-10-31T07:09:25;93913.09;;;13.41;100.00
10261;BME280;5175;42.606;23.388;2023-10-31T07:11:52;93912.06;;;13.55;100.00
10261;BME280;5175;42.606;23.388;2023-10-31T07:14:20;93908.34;;;13.70;100.00
10261;BME280;5175;42.606;23.388;2023-10-31T07:16:47;93910.53;;;13.81;100.00
10261;BME280;5175;42.606;23.388;2023-10-31T07:19:14;93909.91;;;13.57;100.00
10261;BME280;5175;42.606;23.388;2023-10-31T07:21:41;93909.25;;;13.79;100.00
10261;BME280;5175;42.606;23.388;2023-10-31T07:24:08;93912.72;;;13.79;100.00
10261;BME280;5175;42.606;23.388;2023-10-31T07:26:35;93912.97;;;13.97;100.00
10261;BME280;5175;42.606;23.388;2023-10-31T07:29:02;93905.41;;;14.12;100.00
10261;BME280;5175;42.606;23.388;2023-10-31T07:31:30;93897.38;;;14.26;100.00
10261;BME280;5175;42.606;23.388;2023-10-31T07:33:57;93908.94;;;14.54;100.00
10261;BME280;5175;42.606;23.388;2023-10-31T07:36:24;93913.31;;;14.50;100.00
10261;BME280;5175;42.606;23.388;2023-10-31T07:38:50;93903.44;;;14.86;100.00
10261;BME280;5175;42.606;23.388;2023-10-31T07:41:17;93902.63;;;14.99;86.20
10261;BME280;5175;42.606;23.388;2023-10-31T07:43:44;93909.31;;;15.24;83.88
10261;BME280;5175;42.606;23.388;2023-10-31T07:46:10;93904.94;;;15.28;84.22
10261;BME280;5175;42.606;23.388;2023-10-31T07:48:38;93899.97;;;15.43;83.57
10261;BME280;5175;42.606;23.388;2023-10-31T07:51:05;93889.69;;;15.59;82.17
10261;BME280;5175;42.606;23.388;2023-10-31T07:53:32;93885.66;;;15.70;83.08
10261;BME280;5175;42.606;23.388;2023-10-31T07:55:59;93883.22;;;15.60;82.72
10261;BME280;5175;42.606;23.388;2023-10-31T07:58:25;93883.31;;;15.77;83.59
10261;BME280;5175;42.606;23.388;2023-10-31T08:00:52;93873.41;;;15.86;84.44
10261;BME280;5175;42.606;23.388;2023-10-31T08:03:19;93872.88;;;16.06;83.27
10261;BME280;5175;42.606;23.388;2023-10-31T08:05:47;93872.28;;;16.18;82.29
10261;BME280;5175;42.606;23.388;2023-10-31T08:08:13;93869.31;;;16.28;82.17
10261;BME280;5175;42.606;23.388;2023-10-31T08:10:40;93861.31;;;16.45;80.21
10261;BME280;5175;42.606;23.388;2023-10-31T08:13:07;93874.63;;;16.50;80.44
10261;BME280;5175;42.606;23.388;2023-10-31T08:15:33;93865.66;;;16.63;83.41
10261;BME280;5175;42.606;23.388;2023-10-31T08:18:00;93868.06;;;16.82;85.35
10261;BME280;5175;42.606;23.388;2023-10-31T08:20:27;93862.38;;;17.01;84.63
10261;BME280;5175;42.606;23.388;2023-10-31T08:22:59;93877.31;;;17.24;79.37
10261;BME280;5175;42.606;23.388;2023-10-31T08:25:27;93866.69;;;17.19;79.86
10261;BME280;5175;42.606;23.388;2023-10-31T08:27:53;93859.41;;;17.28;78.98
10261;BME280;5175;42.606;23.388;2023-10-31T08:30:20;93857.00;;;17.26;79.87
10261;BME280;5175;42.606;23.388;2023-10-31T08:32:47;93842.72;;;17.34;79.19
10261;BME280;5175;42.606;23.388;2023-10-31T08:35:14;93850.66;;;17.57;79.56
10261;BME280;5175;42.606;23.388;2023-10-31T08:37:40;93846.34;;;17.73;78.50
10261;BME280;5175;42.606;23.388;2023-10-31T08:40:09;93841.84;;;17.94;75.55
10261;BME280;5175;42.606;23.388;2023-10-31T08:42:36;93830.00;;;18.15;73.24
10261;BME280;5175;42.606;23.388;2023-10-31T08:45:03;93814.72;;;18.28;71.69
10261;BME280;5175;42.606;23.388;2023-10-31T08:47:30;93833.84;;;18.44;68.04
10261;BME280;5175;42.606;23.388;2023-10-31T08:49:57;93833.63;;;18.66;66.55
10261;BME280;5175;42.606;23.388;2023-10-31T08:52:24;93827.53;;;18.48;65.58
10261;BME280;5175;42.606;23.388;2023-10-31T08:54:51;93815.63;;;18.41;65.56
10261;BME280;5175;42.606;23.388;2023-10-31T08:57:19;93796.91;;;18.65;62.32
10261;BME280;5175;42.606;23.388;2023-10-31T08:59:45;93793.94;;;18.79;59.21
10261;BME280;5175;42.606;23.388;2023-10-31T09:02:12;93788.16;;;18.89;57.55
10261;BME280;5175;42.606;23.388;2023-10-31T09:04:39;93785.38;;;19.18;59.50
10261;BME280;5175;42.606;23.388;2023-10-31T09:07:05;93778.53;;;19.00;60.01
10261;BME280;5175;42.606;23.388;2023-10-31T09:09:32;93775.47;;;19.01;62.78
10261;BME280;5175;42.606;23.388;2023-10-31T09:11:59;93779.91;;;19.06;56.21
10261;BME280;5175;42.606;23.388;2023-10-31T09:14:27;93765.97;;;19.16;56.19
10261;BME280;5175;42.606;23.388;2023-10-31T09:16:54;93763.78;;;19.51;57.60
10261;BME280;5175;42.606;23.388;2023-10-31T09:19:20;93762.78;;;19.67;57.37
10261;BME280;5175;42.606;23.388;2023-10-31T09:21:47;93747.19;;;19.52;57.59
10261;BME280;5175;42.606;23.388;2023-10-31T09:24:14;93757.88;;;19.81;51.96
10261;BME280;5175;42.606;23.388;2023-10-31T09:26:41;93759.47;;;19.94;50.24
10261;BME280;5175;42.606;23.388;2023-10-31T09:29:08;93756.84;;;19.98;51.26
10261;BME280;5175;42.606;23.388;2023-10-31T09:31:37;93751.22;;;20.03;51.89
10261;BME280;5175;42.606;23.388;2023-10-31T09:34:04;93744.47;;;20.09;51.43
10261;BME280;5175;42.606;23.388;2023-10-31T09:36:33;93728.56;;;20.08;51.71
10261;BME280;5175;42.606;23.388;2023-10-31T09:39:00;93734.66;;;20.29;50.88
10261;BME280;5175;42.606;23.388;2023-10-31T09:41:26;93728.31;;;20.13;51.09
10261;BME280;5175;42.606;23.388;2023-10-31T09:43:53;93732.66;;;20.26;51.06
10261;BME280;5175;42.606;23.388;2023-10-31T09:46:21;93724.06;;;20.36;50.85
10261;BME280;5175;42.606;23.388;2023-10-31T09:48:49;93709.59;;;20.20;51.15
10261;BME280;5175;42.606;23.388;2023-10-31T09:51:16;93713.66;;;20.38;51.08
10261;BME280;5175;42.606;23.388;2023-10-31T09:53:44;93704.97;;;20.20;50.95
10261;BME280;5175;42.606;23.388;2023-10-31T09:56:11;93704.72;;;20.62;50.92
10261;BME280;5175;42.606;23.388;2023-10-31T09:58:38;93695.97;;;20.68;49.31
10261;BME280;5175;42.606;23.388;2023-10-31T10:01:06;93688.16;;;20.79;49.29
10261;BME280;5175;42.606;23.388;2023-10-31T10:03:33;93686.38;;;20.98;49.15
10261;BME280;5175;42.606;23.388;2023-10-31T10:06:02;93678.16;;;21.23;49.25
10261;BME280;5175;42.606;23.388;2023-10-31T10:08:29;93685.81;;;21.33;45.93
10261;BME280;5175;42.606;23.388;2023-10-31T10:10:55;93680.50;;;21.36;45.33
10261;BME280;5175;42.606;23.388;2023-10-31T10:13:22;93673.88;;;21.21;46.99
10261;BME280;5175;42.606;23.388;2023-10-31T10:15:51;93653.25;;;21.48;47.67
10261;BME280;5175;42.606;23.388;2023-10-31T10:18:25;93659.09;;;21.35;47.27
10261;BME280;5175;42.606;23.388;2023-10-31T10:20:56;93656.38;;;21.35;47.75
10261;BME280;5175;42.606;23.388;2023-10-31T10:23:25;93653.22;;;21.17;49.17
10261;BME280;5175;42.606;23.388;2023-10-31T10:25:54;93639.66;;;21.33;49.71
10261;BME280;5175;42.606;23.388;2023-10-31T10:28:21;93648.69;;;21.52;49.75
10261;BME280;5175;42.606;23.388;2023-10-31T10:30:50;93641.06;;;21.42;47.12
10261;BME280;5175;42.606;23.388;2023-10-31T10:33:18;93645.63;;;21.38;46.48
10261;BME280;5175;42.606;23.388;2023-10-31T10:35:45;93643.19;;;21.33;45.70
10261;BME280;5175;42.606;23.388;2023-10-31T10:38:13;93629.69;;;21.37;47.62
10261;BME280;5175;42.606;23.388;2023-10-31T10:40:43;93638.44;;;21.30;47.58
10261;BME280;5175;42.606;23.388;2023-10-31T10:43:13;93640.16;;;21.07;46.28
10261;BME280;5175;42.606;23.388;2023-10-31T10:45:42;93625.72;;;21.18;47.43
10261;BME280;5175;42.606;23.388;2023-10-31T10:48:11;93615.94;;;21.30;47.24
10261;BME280;5175;42.606;23.388;2023-10-31T10:50:41;93612.38;;;21.41;45.82
10261;BME280;5175;42.606;23.388;2023-10-31T10:53:14;93618.34;;;21.47;45.30
10261;BME280;5175;42.606;23.388;2023-10-31T10:55:47;93606.50;;;21.24;46.40
10261;BME280;5175;42.606;23.388;2023-10-31T10:58:22;93600.88;;;21.16;44.18
10261;BME280;5175;42.606;23.388;2023-10-31T11:00:55;93598.25;;;21.20;44.56
10261;BME280;5175;42.606;23.388;2023-10-31T11:03:22;93594.47;;;21.25;43.50
10261;BME280;5175;42.606;23.388;2023-10-31T11:05:50;93588.47;;;21.31;44.23
10261;BME280;5175;42.606;23.388;2023-10-31T11:08:19;93576.03;;;21.46;45.01
10261;BME280;5175;42.606;23.388;2023-10-31T11:10:48;93565.50;;;21.44;45.14
10261;BME280;5175;42.606;23.388;2023-10-31T11:13:15;93574.69;;;21.55;44.54
10261;BME280;5175;42.606;23.388;2023-10-31T11:15:42;93574.00;;;21.58;46.83
10261;BME280;5175;42.606;23.388;2023-10-31T11:18:10;93578.03;;;21.49;43.87
10261;BME280;5175;42.606;23.388;2023-10-31T11:20:37;93566.03;;;21.50;44.91
10261;BME280;5175;42.606;23.388;2023-10-31T11:23:05;93566.28;;;21.45;45.26
10261;BME280;5175;42.606;23.388;2023-10-31T11:25:32;93553.94;;;21.32;45.72
10261;BME280;5175;42.606;23.388;2023-10-31T11:28:12;93553.63;;;21.33;46.20
10261;BME280;5175;42.606;23.388;2023-10-31T11:30:39;93554.84;;;21.36;45.47
10261;BME280;5175;42.606;23.388;2023-10-31T11:33:11;93547.22;;;21.10;45.02
10261;BME280;5175;42.606;23.388;2023-10-31T11:35:39;93538.44;;;21.16;46.57
10261;BME280;5175;42.606;23.388;2023-10-31T11:38:07;93546.31;;;21.06;45.87
10261;BME280;5175;42.606;23.388;2023-10-31T11:40:34;93533.09;;;21.04;47.33
10261;BME280;5175;42.606;23.388;2023-10-31T11:43:03;93530.16;;;21.09;50.09
10261;BME280;5175;42.606;23.388;2023-10-31T11:45:33;93522.22;;;21.04;46.02
10261;BME280;5175;42.606;23.388;2023-10-31T11:48:01;93520.41;;;21.08;46.00
10261;BME280;5175;42.606;23.388;2023-10-31T11:50:30;93519.97;;;21.06;44.16
10261;BME280;5175;42.606;23.388;2023-10-31T11:53:02;93515.44;;;21.10;44.72
10261;BME280;5175;42.606;23.388;2023-10-31T11:55:30;93511.84;;;21.06;45.65
10261;BME280;5175;42.606;23.388;2023-10-31T11:57:59;93511.38;;;21.04;48.69
10261;BME280;5175;42.606;23.388;2023-10-31T12:00:26;93509.72;;;21.00;47.22
10261;BME280;5175;42.606;23.388;2023-10-31T12:03:00;93514.19;;;20.92;45.90
10261;BME280;5175;42.606;23.388;2023-10-31T12:05:28;93496.59;;;20.86;45.56
10261;BME280;5175;42.606;23.388;2023-10-31T12:07:55;93494.03;;;20.78;45.73
10261;BME280;5175;42.606;23.388;2023-10-31T12:10:23;93499.03;;;20.91;45.14
10261;BME280;5175;42.606;23.388;2023-10-31T12:12:50;93501.56;;;20.84;45.95
10261;BME280;5175;42.606;23.388;2023-10-31T12:15:17;93482.84;;;20.79;46.58
10261;BME280;5175;42.606;23.388;2023-10-31T12:17:43;93481.53;;;20.73;48.39
10261;BME280;5175;42.606;23.388;2023-10-31T12:20:12;93468.91;;;20.65;47.14
10261;BME280;5175;42.606;23.388;2023-10-31T12:22:39;93478.47;;;20.75;46.93
10261;BME280;5175;42.606;23.388;2023-10-31T12:25:07;93464.72;;;20.68;44.74
10261;BME280;5175;42.606;23.388;2023-10-31T12:27:44;93487.31;;;20.87;48.03
10261;BME280;5175;42.606;23.388;2023-10-31T12:30:13;93485.31;;;21.00;43.44
10261;BME280;5175;42.606;23.388;2023-10-31T12:32:40;93482.53;;;21.12;43.08
10261;BME280;5175;42.606;23.388;2023-10-31T12:35:08;93479.44;;;21.29;45.51
10261;BME280;5175;42.606;23.388;2023-10-31T12:37:43;93473.19;;;21.44;45.18
10261;BME280;5175;42.606;23.388;2023-10-31T12:40:12;93464.81;;;21.49;43.23
10261;BME280;5175;42.606;23.388;2023-10-31T12:42:39;93457.44;;;21.50;47.51
10261;BME280;5175;42.606;23.388;2023-10-31T12:45:06;93455.56;;;21.69;42.65
10261;BME280;5175;42.606;23.388;2023-10-31T12:47:33;93451.66;;;21.86;42.62
10261;BME280;5175;42.606;23.388;2023-10-31T12:50:09;93456.03;;;21.91;41.38
10261;BME280;5175;42.606;23.388;2023-10-31T12:52:50;93444.72;;;21.89;42.11
10261;BME280;5175;42.606;23.388;2023-10-31T12:55:19;93430.38;;;21.72;41.37
10261;BME280;5175;42.606;23.388;2023-10-31T12:57:47;93415.31;;;21.56;41.79
10261;BME280;5175;42.606;23.388;2023-10-31T13:00:15;93427.50;;;21.46;42.41